Главная страница
METAR-TAF:

METAR-TAF

Аэропорты :

Николаев, Украина

широта: 47-03-29N, долгота: 031-55-15E, высота над уровнем моря: 56 м

Текущие метеонаблюдения

Эта сводка был подготовлена 10 часа и 2 минут назад, в 15:00 UTC
Ветер 6 Узел от восточный
Температура 13°C
Влажность 72%
Давление 1022 hPa
Видимость 10 км и более
Сплошная облачность на высоте 2400 фута

METAR: UKON 151500Z 10003MPS 9999 OVC024 13/08 Q1022 R04/090075 NOSIG

Время: 03:02 (01:02 UTC)

Прогноз

Эта сводка был подготовлена 10 часа и 59 минут назад, в 14:03 UTC
Прогноз действительный с 15-го 15 UTC до 15-го 24 UTC
Ветер 6 Узел от восточно-юго-восточный
Видимость: 6000 м
Рассеянная облачность на высоте 700 фута
Отдельные облака на высоте 1500 фута, Кучево-дождевые.
временами
С 15-го 15 UTC до 15-го 24 UTC
Видимость: 2100 м
Рассеянная облачность на высоте 300 фута
дымка

TAF: UKON 151403Z 1515/1524 11003MPS 6000 BKN007 SCT015CB TEMPO 1515/1524 2100 BR BKN003

Метеонаблюдения и прогнозы для более 4000 аэропортов (сводки METAR и TAF).

Имеющиеся станции представлены на карте желтыми и красными точками.

Чтобы увидеть название станции, наведите на нее мышь.

Затем щелкните, чтобы увидеть метеонаблюдения и метеопрогнозы.

Управление картой: чтобы увеличить масштаб, щелкните зеленые кнопки с черным крестиком; чтобы уменьшить масштаб, щелкните зеленую кнопку с тире; для просмотра соседних карт щелкайте зеленые стрелки.


METAR-TAF: